Terminal Aerodrome Forecast
Issued by NWS

Home | Current Version | Previous Version | Text Only | Print | Product List | Glossary On
Versions: 1 2 3 4 5 6 7 8 9 10 11 12 13 14 15 16 17
000
FTUS43 KMQT 252300
TAFSAW
TAF
KSAW 252320Z 2600/2624 23007KT P6SM OVC015
      TEMPO 2600/2604 SCT015 OVC040
     FM260400 22004KT 5SM -SN OVC015
     FM260700 VRB03KT P6SM VCSH OVC015
     FM261800 36003KT P6SM OVC010
      AMD LTD TO CLD VIS AND WIND 2603/2611=

USA.gov is the U.S. government's official web portal to all federal, state and local government web resources and services.